Time;durP1;ratioP1;P1;durP2;ratioP2;P2;SDS_P1;SDS_P2;PMS_P1;PMS_P2;Temp;Humidity;BMP_temperature;BMP_pressure;BME280_temperature;BME280_humidity;BME280_pressure;Samples;Min_cycle;Max_cycle;Signal;HPM_P1;HPM_P2
2021/03/19 00:01:24;;;;;;;17.93;8.10;;;1.10;99.90;;;;;;5110401;28;20074;-64
2021/03/19 00:03:49;;;;;;;13.33;7.73;;;1.10;99.90;;;;;;5109819;28;20050;-64
2021/03/19 00:06:15;;;;;;;13.93;7.60;;;1.00;99.90;;;;;;5110123;28;20044;-63
2021/03/19 00:08:41;;;;;;;15.23;8.60;;;1.10;99.90;;;;;;5110398;28;20170;-64
2021/03/19 00:11:07;;;;;;;15.05;7.97;;;1.00;99.90;;;;;;5110223;28;20035;-64
2021/03/19 00:13:33;;;;;;;20.80;8.80;;;1.00;99.90;;;;;;5109818;28;20082;-64
2021/03/19 00:15:58;;;;;;;18.10;8.17;;;1.00;99.90;;;;;;5109913;28;20071;-64
2021/03/19 00:18:24;;;;;;;17.83;8.73;;;1.00;99.90;;;;;;5109709;28;20071;-64
2021/03/19 00:20:50;;;;;;;13.33;7.47;;;0.90;99.90;;;;;;5110005;28;20353;-64
2021/03/19 00:23:16;;;;;;;16.40;6.88;;;0.90;99.90;;;;;;5109617;28;20135;-65
2021/03/19 00:25:43;;;;;;;16.23;7.80;;;0.90;99.90;;;;;;5109654;28;20110;-64
2021/03/19 00:28:13;;;;;;;19.08;7.60;;;0.90;99.90;;;;;;5109932;28;20066;-64
2021/03/19 00:30:40;;;;;;;20.27;7.53;;;0.90;99.90;;;;;;5109559;28;20089;-64
2021/03/19 00:33:06;;;;;;;21.65;7.18;;;0.90;99.90;;;;;;5109715;28;20067;-64
2021/03/19 00:35:32;;;;;;;15.80;7.95;;;0.90;99.90;;;;;;5109418;28;20362;-64
2021/03/19 00:37:58;;;;;;;17.13;7.73;;;0.80;99.90;;;;;;5109594;28;20052;-64
2021/03/19 00:40:24;;;;;;;18.67;7.73;;;0.70;99.90;;;;;;5109263;28;20082;-64
2021/03/19 00:42:50;;;;;;;16.33;7.40;;;0.70;99.90;;;;;;5109700;28;20066;-66
2021/03/19 00:45:16;;;;;;;14.13;7.20;;;0.70;99.90;;;;;;5109381;28;20047;-64
2021/03/19 00:47:42;;;;;;;17.35;7.53;;;0.70;99.90;;;;;;5109274;28;20422;-64
2021/03/19 00:50:15;;;;;;;13.73;7.20;;;0.70;99.90;;;;;;5108999;28;20107;-64
2021/03/19 00:52:41;;;;;;;14.80;7.40;;;0.60;99.90;;;;;;5109200;28;20468;-64
2021/03/19 00:55:11;;;;;;;23.10;7.83;;;0.50;99.90;;;;;;5109346;28;20124;-64
2021/03/19 00:57:37;;;;;;;13.93;7.18;;;0.50;99.90;;;;;;5109369;28;20051;-64
2021/03/19 01:00:08;;;;;;;17.40;7.37;;;0.50;99.90;;;;;;5109097;28;20046;-65
2021/03/19 01:02:34;;;;;;;19.75;7.78;;;0.40;99.90;;;;;;5109092;28;20047;-65
2021/03/19 01:05:00;;;;;;;16.77;7.30;;;0.40;99.90;;;;;;5109016;28;20366;-64
2021/03/19 01:07:25;;;;;;;18.07;7.60;;;0.40;99.90;;;;;;5108233;28;20055;-65
2021/03/19 01:09:51;;;;;;;18.87;8.03;;;0.40;99.90;;;;;;5108290;28;20301;-65
2021/03/19 01:12:17;;;;;;;21.05;7.63;;;0.50;99.90;;;;;;5108819;28;20085;-65
2021/03/19 01:14:43;;;;;;;18.67;7.73;;;0.50;99.90;;;;;;5108960;28;20047;-64
2021/03/19 01:17:09;;;;;;;22.23;7.57;;;0.40;99.90;;;;;;5108647;28;20047;-64
2021/03/19 01:19:35;;;;;;;16.80;8.25;;;0.40;99.90;;;;;;5108902;28;20055;-65
2021/03/19 01:22:01;;;;;;;18.57;6.93;;;0.40;99.90;;;;;;5108888;28;20335;-64
2021/03/19 01:24:27;;;;;;;24.38;7.35;;;0.40;99.90;;;;;;5108499;28;20047;-65
2021/03/19 01:29:19;;;;;;;19.03;7.50;;;0.40;99.90;;;;;;5108694;28;20088;-64
2021/03/19 01:31:44;;;;;;;22.70;7.70;;;0.30;99.90;;;;;;5108949;28;20052;-64
2021/03/19 01:34:10;;;;;;;19.93;8.43;;;0.30;99.90;;;;;;5108455;28;20055;-64
2021/03/19 01:36:36;;;;;;;16.30;7.13;;;0.30;99.90;;;;;;5108042;28;20052;-64
2021/03/19 01:39:02;;;;;;;18.70;7.37;;;0.30;99.90;;;;;;5108660;28;20040;-64
2021/03/19 01:41:28;;;;;;;19.13;7.63;;;0.20;99.90;;;;;;5108286;28;20206;-63
2021/03/19 01:44:33;;;;;;;17.97;6.97;;;0.20;99.90;;;;;;5108418;28;20214;-63
2021/03/19 01:47:36;;;;;;;24.50;7.90;;;0.20;99.90;;;;;;5108177;27;20047;-64
2021/03/19 01:50:39;;;;;;;21.60;7.70;;;0.20;99.90;;;;;;5108312;28;20045;-64
2021/03/19 01:53:42;;;;;;;17.25;7.15;;;0.20;99.90;;;;;;5107947;28;20040;-64
2021/03/19 01:56:45;;;;;;;25.42;8.65;;;0.10;99.90;;;;;;5108164;28;20119;-64
2021/03/19 01:59:49;;;;;;;19.38;8.65;;;0.20;99.90;;;;;;5107992;28;20056;-64
2021/03/19 02:02:52;;;;;;;20.52;8.80;;;0.20;99.90;;;;;;5107853;28;20521;-63
2021/03/19 02:05:55;;;;;;;20.20;8.52;;;0.20;99.90;;;;;;5108241;28;20130;-63
2021/03/19 02:08:58;;;;;;;19.45;8.57;;;0.30;99.90;;;;;;5108302;28;20075;-64
2021/03/19 02:12:01;;;;;;;29.15;8.75;;;0.20;99.90;;;;;;5108462;28;20094;-64
2021/03/19 02:15:05;;;;;;;24.30;8.23;;;0.20;99.90;;;;;;5108108;28;20086;-64
2021/03/19 02:18:08;;;;;;;21.40;8.35;;;0.20;99.90;;;;;;5107651;28;20149;-64
2021/03/19 02:21:11;;;;;;;27.85;9.35;;;0.20;99.90;;;;;;5107959;28;20047;-64
2021/03/19 02:24:14;;;;;;;26.70;9.05;;;0.20;99.90;;;;;;5112332;28;20132;-64
2021/03/19 02:27:17;;;;;;;27.67;10.60;;;0.10;99.90;;;;;;5112120;28;20075;-63
2021/03/19 02:30:21;;;;;;;25.50;10.50;;;0.10;99.90;;;;;;5112394;28;20143;-64
2021/03/19 02:32:47;;;;;;;29.75;10.35;;;0.10;99.90;;;;;;5112209;28;20081;-63
2021/03/19 02:35:19;;;;;;;25.60;8.83;;;0.10;99.90;;;;;;5112137;28;20211;-64
2021/03/19 02:37:45;;;;;;;25.65;10.48;;;0.00;99.90;;;;;;5111862;27;20120;-63
2021/03/19 02:40:18;;;;;;;34.37;11.17;;;0.00;99.90;;;;;;5111365;28;20051;-64
2021/03/19 02:42:44;;;;;;;29.75;11.30;;;0.00;99.90;;;;;;5111615;28;20362;-64
2021/03/19 02:45:13;;;;;;;28.40;10.77;;;0.00;99.90;;;;;;5111542;28;20044;-64
2021/03/19 02:47:39;;;;;;;31.92;11.77;;;0.00;99.90;;;;;;5111394;28;20486;-64
2021/03/19 02:50:07;;;;;;;35.03;12.30;;;0.00;99.90;;;;;;5111624;28;20075;-64
2021/03/19 02:52:35;;;;;;;44.65;11.65;;;-0.10;99.90;;;;;;5111458;28;20441;-64
2021/03/19 02:55:04;;;;;;;33.90;11.90;;;-0.10;99.90;;;;;;5110237;28;20425;-64
2021/03/19 02:57:30;;;;;;;32.60;12.52;;;-0.10;99.90;;;;;;5111483;28;20048;-63
2021/03/19 02:59:55;;;;;;;34.97;13.80;;;-0.10;99.90;;;;;;5111765;28;20048;-64
2021/03/19 03:02:21;;;;;;;27.47;12.20;;;-0.10;99.90;;;;;;5111714;28;20055;-64
2021/03/19 03:04:47;;;;;;;34.57;12.33;;;-0.10;99.90;;;;;;5111037;28;20081;-63
2021/03/19 03:07:28;;;;;;;32.20;11.53;;;-0.20;99.90;;;;;;5111486;28;20184;-63
2021/03/19 03:09:55;;;;;;;31.15;11.25;;;-0.20;99.90;;;;;;5111168;28;20073;-64
2021/03/19 03:12:22;;;;;;;28.85;12.70;;;-0.20;99.90;;;;;;5110973;28;20146;-64
2021/03/19 03:14:48;;;;;;;28.70;11.05;;;-0.30;99.90;;;;;;5111778;28;20048;-64
2021/03/19 03:17:14;;;;;;;33.73;11.27;;;-0.30;99.90;;;;;;5111125;28;20052;-65
2021/03/19 03:19:41;;;;;;;39.63;11.93;;;-0.30;99.90;;;;;;5111451;28;20111;-64
2021/03/19 03:22:09;;;;;;;44.28;12.32;;;-0.30;99.90;;;;;;5111144;28;20087;-64
2021/03/19 03:24:35;;;;;;;30.95;12.15;;;-0.40;99.90;;;;;;5111286;28;20197;-64
2021/03/19 03:27:01;;;;;;;29.67;11.52;;;-0.40;99.90;;;;;;5110909;28;20136;-63
2021/03/19 03:29:28;;;;;;;28.52;11.38;;;-0.50;99.90;;;;;;5111146;28;20079;-64
2021/03/19 03:31:55;;;;;;;29.15;10.02;;;-0.50;99.90;;;;;;5110778;28;20373;-64
2021/03/19 03:34:22;;;;;;;30.00;9.90;;;-0.60;99.90;;;;;;5110783;28;20083;-64
2021/03/19 03:36:49;;;;;;;38.25;12.38;;;-0.60;99.90;;;;;;5110745;28;20152;-64
2021/03/19 03:39:23;;;;;;;39.05;12.77;;;-0.70;99.90;;;;;;5110118;28;20075;-65
2021/03/19 03:41:49;;;;;;;41.72;13.88;;;-0.70;99.90;;;;;;5110344;28;20075;-64
2021/03/19 03:44:17;;;;;;;42.53;14.25;;;-0.70;99.90;;;;;;5110771;28;20610;-65
2021/03/19 03:46:45;;;;;;;34.38;13.30;;;-0.70;99.90;;;;;;5110710;28;20517;-64
2021/03/19 03:49:14;;;;;;;36.90;13.60;;;-0.70;99.90;;;;;;5110754;28;20086;-67
2021/03/19 03:51:41;;;;;;;42.95;14.02;;;-0.80;99.90;;;;;;5110433;28;20112;-64
2021/03/19 03:54:07;;;;;;;44.28;15.05;;;-0.70;99.90;;;;;;5110243;28;20075;-64
2021/03/19 03:56:34;;;;;;;56.45;15.20;;;-0.70;99.90;;;;;;5109738;28;20083;-64
2021/03/19 03:59:00;;;;;;;43.88;15.10;;;-0.60;99.90;;;;;;5109994;28;20194;-65
2021/03/19 04:01:27;;;;;;;47.40;16.13;;;-0.60;99.90;;;;;;5110311;28;20079;-64
2021/03/19 04:03:53;;;;;;;39.00;14.90;;;-0.60;99.90;;;;;;5110110;28;20087;-63
2021/03/19 04:06:20;;;;;;;45.25;16.08;;;-0.50;99.90;;;;;;5109807;28;20180;-63
2021/03/19 04:08:47;;;;;;;47.67;16.15;;;-0.60;99.90;;;;;;5109877;28;20147;-63
2021/03/19 04:11:16;;;;;;;44.70;16.60;;;-0.60;99.90;;;;;;5110101;28;20475;-64
2021/03/19 04:13:43;;;;;;;55.30;17.42;;;-0.60;99.90;;;;;;5109394;28;20098;-63
2021/03/19 04:16:10;;;;;;;52.13;16.90;;;-0.60;99.90;;;;;;5109780;28;20083;-63
2021/03/19 04:18:37;;;;;;;48.10;16.20;;;-0.70;99.90;;;;;;5109957;28;20079;-63
2021/03/19 04:21:08;;;;;;;47.80;16.90;;;-0.70;99.90;;;;;;5109672;28;20079;-63
2021/03/19 04:23:39;;;;;;;44.97;17.30;;;-0.70;99.90;;;;;;5109116;28;20529;-63
2021/03/19 04:26:15;;;;;;;47.10;18.67;;;-0.70;99.90;;;;;;5109509;28;20286;-63
2021/03/19 04:28:41;;;;;;;56.22;18.83;;;-0.70;99.90;;;;;;5110052;28;20087;-63
2021/03/19 04:31:07;;;;;;;43.08;17.50;;;-0.60;99.90;;;;;;5110017;28;20083;-64
2021/03/19 04:33:34;;;;;;;57.35;19.83;;;-0.60;99.90;;;;;;5109994;28;20187;-64
2021/03/19 04:36:10;;;;;;;50.33;19.65;;;-0.60;99.90;;;;;;5109834;28;20075;-63
2021/03/19 04:38:37;;;;;;;57.10;20.70;;;-0.60;99.90;;;;;;5109556;28;20299;-63
2021/03/19 04:41:04;;;;;;;48.35;18.98;;;-0.60;99.90;;;;;;5110010;28;20083;-64
2021/03/19 04:43:32;;;;;;;58.83;20.95;;;-0.70;99.90;;;;;;5109654;28;20052;-63
2021/03/19 04:45:58;;;;;;;64.25;21.27;;;-0.70;99.90;;;;;;5109212;28;20494;-63
2021/03/19 04:48:25;;;;;;;51.15;19.52;;;-0.70;99.90;;;;;;5109568;28;20090;-63
2021/03/19 04:50:51;;;;;;;63.70;19.88;;;-0.70;99.90;;;;;;5109745;28;20073;-64
2021/03/19 04:53:17;;;;;;;61.63;19.95;;;-0.70;99.90;;;;;;5109251;28;20162;-64
2021/03/19 04:55:43;;;;;;;67.70;21.85;;;-0.70;99.90;;;;;;5109431;28;20079;-63
2021/03/19 04:58:10;;;;;;;55.78;20.67;;;-0.70;99.90;;;;;;5109424;28;20059;-64
2021/03/19 05:00:36;;;;;;;67.10;21.23;;;-0.70;99.90;;;;;;5109730;28;20491;-63
2021/03/19 05:03:03;;;;;;;61.08;20.80;;;-0.80;99.90;;;;;;5109393;28;20082;-64
2021/03/19 05:05:31;;;;;;;70.85;23.20;;;-0.80;99.90;;;;;;5108833;28;20079;-64
2021/03/19 05:07:59;;;;;;;64.35;21.95;;;-0.70;99.90;;;;;;5109260;28;20112;-64
2021/03/19 05:10:28;;;;;;;60.10;21.15;;;-0.80;99.90;;;;;;5109404;28;20502;-64
2021/03/19 05:12:55;;;;;;;54.15;18.70;;;-0.70;99.90;;;;;;5109429;28;20131;-63
2021/03/19 05:15:23;;;;;;;68.00;22.50;;;-0.90;99.90;;;;;;5109620;28;20094;-63
2021/03/19 05:17:49;;;;;;;70.03;22.88;;;-0.90;99.90;;;;;;5111623;28;20074;-65
2021/03/19 05:20:17;;;;;;;60.92;19.90;;;-0.90;99.90;;;;;;5113490;28;20051;-64
2021/03/19 05:22:44;;;;;;;63.53;20.65;;;-0.90;99.90;;;;;;5113176;28;20118;-64
2021/03/19 05:25:14;;;;;;;56.17;20.88;;;-0.90;99.90;;;;;;5114066;28;20083;-64
2021/03/19 05:27:41;;;;;;;57.45;21.17;;;-1.00;99.90;;;;;;5112652;28;20086;-65
2021/03/19 05:30:10;;;;;;;61.17;19.38;;;-1.00;99.90;;;;;;5112641;28;20079;-64
2021/03/19 05:32:37;;;;;;;57.53;20.38;;;-1.00;99.90;;;;;;5111510;28;20083;-65
2021/03/19 05:35:06;;;;;;;60.30;20.58;;;-1.00;99.90;;;;;;5108451;28;20086;-63
2021/03/19 05:37:32;;;;;;;73.65;21.92;;;-1.10;99.90;;;;;;5109030;28;20085;-65
2021/03/19 05:39:59;;;;;;;72.63;25.67;;;-1.00;99.90;;;;;;5108313;28;20089;-63
2021/03/19 05:42:29;;;;;;;63.13;24.48;;;-0.90;99.90;;;;;;5108866;28;20557;-63
2021/03/19 05:45:00;;;;;;;65.28;22.02;;;-0.80;99.90;;;;;;5109124;28;20079;-62
2021/03/19 05:47:28;;;;;;;70.63;23.42;;;-0.80;99.90;;;;;;5108191;28;20075;-63
2021/03/19 05:49:59;;;;;;;71.75;26.30;;;-0.70;99.90;;;;;;5108947;28;20083;-63
2021/03/19 05:52:33;;;;;;;73.55;24.65;;;-0.70;99.90;;;;;;5108607;28;20085;-63
2021/03/19 05:55:14;;;;;;;70.50;24.58;;;-0.60;99.90;;;;;;5108237;28;20391;-61
2021/03/19 05:57:40;;;;;;;72.13;24.80;;;-0.60;99.90;;;;;;5107828;28;20094;-63
2021/03/19 06:00:16;;;;;;;70.32;22.92;;;-0.60;99.90;;;;;;5107796;28;20169;-62
2021/03/19 06:02:43;;;;;;;60.15;23.50;;;-0.50;99.90;;;;;;5108747;28;20551;-60
2021/03/19 06:05:28;;;;;;;57.88;24.55;;;-0.40;99.90;;;;;;5141415;27;20075;-59
2021/03/19 06:08:04;;;;;;;63.28;22.75;;;-0.30;99.90;;;;;;5107153;28;20083;-60
2021/03/19 06:10:33;;;;;;;60.72;20.27;;;-0.30;99.90;;;;;;5109087;28;20117;-59
2021/03/19 06:13:19;;;;;;;85.95;25.95;;;-0.20;99.90;;;;;;5108269;28;20469;-59
2021/03/19 06:15:48;;;;;;;60.15;21.02;;;-0.20;99.90;;;;;;5107651;28;20083;-59
2021/03/19 06:18:29;;;;;;;58.40;21.38;;;-0.20;99.90;;;;;;5107773;28;20079;-59
2021/03/19 06:21:04;;;;;;;53.08;19.95;;;-0.20;99.90;;;;;;5107278;28;20532;-59
2021/03/19 06:23:32;;;;;;;63.72;23.98;;;-0.10;99.90;;;;;;5106952;28;20101;-61
2021/03/19 06:26:28;;;;;;;63.03;21.13;;;-0.10;99.90;;;;;;5105328;28;20060;-62
2021/03/19 06:29:31;;;;;;;67.05;23.30;;;0.00;99.90;;;;;;5106540;28;20047;-62
2021/03/19 06:32:20;;;;;;;60.42;19.60;;;0.00;99.90;;;;;;5092202;28;20047;-61
2021/03/19 06:35:07;;;;;;;73.57;23.52;;;0.00;99.90;;;;;;5107507;28;20048;-60
2021/03/19 06:37:53;;;;;;;68.47;22.95;;;0.10;99.90;;;;;;5106566;28;20143;-61
2021/03/19 06:40:39;;;;;;;64.15;19.05;;;0.20;99.90;;;;;;5135389;27;20096;-61
2021/03/19 06:43:29;;;;;;;62.15;23.05;;;0.10;99.90;;;;;;5106244;28;20081;-61
2021/03/19 06:46:35;;;;;;;66.65;20.88;;;0.20;99.90;;;;;;5107185;28;20052;-62
2021/03/19 06:49:25;;;;;;;57.53;19.60;;;0.20;99.90;;;;;;5091832;28;20056;-61
2021/03/19 06:52:16;;;;;;;58.25;21.35;;;0.30;99.90;;;;;;5106055;28;20357;-61
2021/03/19 06:55:04;;;;;;;68.30;22.08;;;0.30;99.90;;;;;;5135595;27;20049;-60
2021/03/19 06:57:50;;;;;;;55.55;19.58;;;0.40;99.90;;;;;;5106767;28;20342;-62
2021/03/19 07:00:45;;;;;;;57.08;20.00;;;0.50;99.90;;;;;;5135064;27;20490;-62
2021/03/19 07:03:46;;;;;;;55.90;17.80;;;0.50;99.90;;;;;;5105347;28;20042;-60
2021/03/19 07:06:53;;;;;;;59.65;19.15;;;0.50;99.90;;;;;;5106024;28;20524;-61
2021/03/19 07:09:47;;;;;;;52.58;18.33;;;0.50;99.90;;;;;;5109899;28;20565;-61
2021/03/19 07:12:36;;;;;;;56.00;20.35;;;0.60;99.90;;;;;;5111471;28;20434;-61
2021/03/19 07:15:31;;;;;;;52.42;21.25;;;0.70;99.90;;;;;;5096509;28;20139;-60
2021/03/19 07:18:45;;;;;;;61.88;19.25;;;0.70;99.90;;;;;;5109809;28;20105;-60
2021/03/19 07:21:16;;;;;;;41.03;17.65;;;0.80;99.90;;;;;;5110851;28;20052;-61
2021/03/19 07:24:34;;;;;;;53.42;18.25;;;0.80;99.90;;;;;;5108390;28;20044;-58
2021/03/19 07:27:36;;;;;;;37.88;15.10;;;0.80;99.90;;;;;;5108199;28;20463;-59
2021/03/19 07:30:19;;;;;;;36.00;16.13;;;0.90;99.90;;;;;;5108848;28;20055;-59
2021/03/19 07:33:10;;;;;;;39.30;17.45;;;1.00;99.90;;;;;;5109122;28;20067;-59
2021/03/19 07:36:12;;;;;;;32.47;15.35;;;1.00;99.90;;;;;;5109137;28;20057;-60
2021/03/19 07:39:07;;;;;;;46.80;17.25;;;1.10;99.90;;;;;;5108012;28;20055;-59
2021/03/19 07:42:02;;;;;;;34.05;16.45;;;1.20;99.90;;;;;;5109186;28;20687;-63
2021/03/19 07:44:57;;;;;;;34.45;14.45;;;1.40;99.90;;;;;;5109605;28;20474;-63
2021/03/19 07:47:53;;;;;;;26.10;14.35;;;1.40;99.90;;;;;;5110235;28;20077;-62
2021/03/19 07:50:57;;;;;;;30.73;14.15;;;1.60;99.90;;;;;;5095749;28;20054;-63
2021/03/19 07:54:04;;;;;;;35.72;12.15;;;1.70;99.90;;;;;;5109225;28;20493;-59
2021/03/19 07:57:18;;;;;;;22.63;11.40;;;1.70;99.90;;;;;;5109396;28;20453;-60
2021/03/19 08:00:13;;;;;;;27.15;12.60;;;1.80;99.90;;;;;;5109991;28;20048;-60
2021/03/19 08:03:17;;;;;;;27.90;12.27;;;1.90;99.90;;;;;;5109705;28;20051;-60
2021/03/19 08:06:12;;;;;;;26.35;12.15;;;2.00;99.90;;;;;;5109510;28;20567;-60
2021/03/19 08:09:07;;;;;;;24.20;12.60;;;2.20;99.90;;;;;;5109122;28;20051;-59
2021/03/19 08:12:05;;;;;;;21.75;10.88;;;2.20;99.90;;;;;;5109693;28;20051;-60
2021/03/19 08:14:50;;;;;;;24.70;11.23;;;2.40;99.90;;;;;;5109188;28;20086;-60
2021/03/19 08:18:01;;;;;;;24.52;10.27;;;2.50;99.90;;;;;;5108263;28;20084;-60
2021/03/19 08:21:06;;;;;;;18.50;8.63;;;2.60;99.90;;;;;;5108284;28;20161;-60
2021/03/19 08:24:07;;;;;;;18.73;7.25;;;2.70;99.90;;;;;;5108207;28;20055;-61
2021/03/19 08:27:26;;;;;;;15.85;8.80;;;2.80;99.90;;;;;;5108662;28;20062;-61
2021/03/19 08:30:29;;;;;;;15.18;7.88;;;2.90;99.90;;;;;;5109071;28;20052;-60
2021/03/19 08:33:38;;;;;;;17.70;7.88;;;3.00;99.90;;;;;;5108589;28;20052;-60
2021/03/19 08:36:44;;;;;;;15.32;7.72;;;3.00;99.90;;;;;;5108744;28;20091;-60
2021/03/19 08:39:40;;;;;;;16.85;8.05;;;3.30;99.90;;;;;;5108668;28;20052;-61
2021/03/19 08:42:39;;;;;;;11.45;6.40;;;3.40;99.90;;;;;;5108508;28;20107;-60
2021/03/19 08:45:27;;;;;;;8.68;5.30;;;3.50;99.90;;;;;;5109223;28;20154;-61
2021/03/19 08:48:15;;;;;;;13.07;4.82;;;3.40;99.90;;;;;;5108368;28;20134;-62
2021/03/19 08:51:19;;;;;;;10.63;5.20;;;3.50;99.90;;;;;;5108731;28;20163;-61
2021/03/19 08:54:15;;;;;;;8.45;4.82;;;3.70;99.90;;;;;;5107625;28;20086;-60
2021/03/19 08:57:03;;;;;;;12.20;5.75;;;3.80;99.80;;;;;;5106762;28;20051;-60
2021/03/19 08:59:50;;;;;;;8.50;4.65;;;3.80;99.90;;;;;;5108428;28;20059;-60
2021/03/19 09:02:59;;;;;;;10.38;5.18;;;3.80;99.00;;;;;;5108424;28;20051;-60
2021/03/19 09:05:48;;;;;;;6.82;4.55;;;3.80;98.00;;;;;;5109152;28;20050;-60
2021/03/19 09:08:19;;;;;;;9.50;4.80;;;3.80;98.00;;;;;;5108961;28;20048;-60
2021/03/19 09:11:08;;;;;;;5.07;3.45;;;3.90;97.20;;;;;;5108595;28;20124;-60
2021/03/19 09:13:33;;;;;;;8.07;4.03;;;3.90;96.20;;;;;;5108891;28;20048;-61
2021/03/19 09:16:40;;;;;;;8.57;4.53;;;4.00;96.90;;;;;;5109224;28;20476;-60
2021/03/19 09:19:32;;;;;;;6.75;3.63;;;4.10;96.50;;;;;;5108135;28;20142;-61
2021/03/19 09:22:24;;;;;;;4.75;3.80;;;4.10;95.40;;;;;;5108498;28;20366;-61
2021/03/19 09:25:13;;;;;;;5.47;3.47;;;4.00;96.70;;;;;;5107633;28;20066;-61
2021/03/19 09:28:13;;;;;;;8.40;3.60;;;4.00;96.30;;;;;;5109145;28;20119;-60
2021/03/19 09:31:25;;;;;;;7.97;3.38;;;4.00;94.90;;;;;;5107640;28;20051;-60
2021/03/19 09:34:31;;;;;;;6.25;3.60;;;4.10;95.80;;;;;;5107112;28;20056;-60
2021/03/19 09:37:35;;;;;;;8.25;3.50;;;4.30;95.30;;;;;;5107156;28;20146;-61
2021/03/19 09:40:45;;;;;;;4.45;2.75;;;4.40;94.20;;;;;;5107944;28;20047;-61
2021/03/19 09:43:34;;;;;;;7.03;2.88;;;4.40;93.20;;;;;;5109048;28;20052;-59
2021/03/19 09:46:26;;;;;;;5.25;2.85;;;4.50;92.00;;;;;;5110900;28;20043;-61
2021/03/19 09:49:25;;;;;;;6.00;3.60;;;4.60;92.60;;;;;;5103497;28;20457;-61
2021/03/19 09:51:50;;;;;;;6.53;3.10;;;4.60;93.70;;;;;;5106883;28;20088;-61
2021/03/19 09:54:30;;;;;;;4.37;3.00;;;4.80;92.90;;;;;;5106646;28;20059;-60
2021/03/19 09:57:04;;;;;;;6.75;2.50;;;4.70;91.90;;;;;;5106828;28;20456;-61
2021/03/19 09:59:36;;;;;;;4.68;2.63;;;4.70;91.90;;;;;;5106916;28;20048;-61
2021/03/19 10:02:26;;;;;;;2.97;1.80;;;4.90;92.10;;;;;;5107634;28;20059;-61
2021/03/19 10:04:52;;;;;;;3.20;2.40;;;4.80;83.70;;;;;;5107249;28;20051;-65
2021/03/19 10:07:43;;;;;;;3.47;2.40;;;4.90;91.40;;;;;;5108065;28;20143;-65
2021/03/19 10:10:37;;;;;;;4.68;2.20;;;5.10;90.50;;;;;;5108581;28;20406;-58
2021/03/19 10:13:25;;;;;;;5.05;1.90;;;5.10;92.00;;;;;;5108810;28;20047;-58
2021/03/19 10:16:23;;;;;;;3.28;1.95;;;5.10;87.80;;;;;;5108186;28;20116;-69
2021/03/19 10:19:11;;;;;;;3.47;1.90;;;5.10;84.20;;;;;;5110918;28;20066;-59
2021/03/19 10:21:57;;;;;;;3.28;2.13;;;5.00;86.20;;;;;;5107341;28;20055;-63
2021/03/19 10:24:43;;;;;;;3.33;2.30;;;5.10;84.30;;;;;;5107030;28;20067;-61
2021/03/19 10:27:29;;;;;;;5.68;2.30;;;5.20;88.40;;;;;;5106681;28;20048;-61
2021/03/19 10:30:21;;;;;;;3.95;2.50;;;5.30;89.20;;;;;;5106043;28;20040;-63
2021/03/19 10:32:48;;;;;;;5.28;2.10;;;5.60;91.90;;;;;;5106809;28;20056;-62
2021/03/19 10:35:38;;;;;;;2.50;2.28;;;5.70;91.50;;;;;;5105962;28;20436;-62
2021/03/19 10:38:33;;;;;;;3.05;2.03;;;5.80;89.70;;;;;;5105918;28;20154;-62
2021/03/19 10:41:08;;;;;;;3.20;2.10;;;5.70;90.10;;;;;;5106428;28;20048;-62
2021/03/19 10:43:41;;;;;;;3.10;1.95;;;5.90;89.40;;;;;;5108325;28;20044;-62
2021/03/19 10:46:28;;;;;;;2.22;1.70;;;6.00;86.70;;;;;;5110176;28;20116;-63
2021/03/19 10:49:00;;;;;;;2.15;1.88;;;5.90;82.60;;;;;;5111291;28;20039;-61
2021/03/19 10:51:42;;;;;;;2.88;2.00;;;6.00;88.50;;;;;;5111043;28;20129;-63
2021/03/19 10:54:22;;;;;;;2.92;1.88;;;6.00;87.30;;;;;;5107949;28;20051;-63
2021/03/19 10:56:59;;;;;;;2.97;1.63;;;5.90;85.20;;;;;;5109618;28;20060;-63
2021/03/19 10:59:36;;;;;;;2.75;1.60;;;6.00;87.60;;;;;;5109649;28;20050;-63
2021/03/19 11:02:18;;;;;;;2.88;1.52;;;6.10;84.50;;;;;;5109262;28;20501;-63
2021/03/19 11:04:57;;;;;;;2.75;1.50;;;6.20;82.90;;;;;;5108456;28;20047;-63
2021/03/19 11:07:44;;;;;;;5.57;1.95;;;6.30;84.20;;;;;;5108628;28;20047;-63
2021/03/19 11:10:21;;;;;;;3.67;1.88;;;6.20;84.90;;;;;;5108237;28;20044;-63
2021/03/19 11:12:50;;;;;;;2.05;1.60;;;6.10;85.90;;;;;;5109661;28;20050;-63
2021/03/19 11:15:18;;;;;;;2.50;1.70;;;6.10;86.90;;;;;;5109088;28;20036;-64
2021/03/19 11:17:45;;;;;;;2.30;1.70;;;6.20;85.00;;;;;;5113993;28;20047;-63
2021/03/19 11:20:16;;;;;;;2.10;1.70;;;6.30;87.30;;;;;;5109051;28;20115;-64
2021/03/19 11:22:45;;;;;;;4.05;1.88;;;6.30;87.70;;;;;;5109088;28;20410;-64
2021/03/19 11:25:44;;;;;;;3.05;1.70;;;6.40;86.80;;;;;;5108869;28;20039;-63
2021/03/19 11:28:19;;;;;;;2.85;1.67;;;6.60;83.80;;;;;;5110335;28;20494;-63
2021/03/19 11:30:46;;;;;;;3.97;1.70;;;6.50;83.40;;;;;;5110343;28;20043;-62
2021/03/19 11:33:17;;;;;;;2.15;1.48;;;6.60;82.20;;;;;;5110736;28;20474;-63
2021/03/19 11:36:07;;;;;;;2.03;1.33;;;6.80;81.50;;;;;;5110239;28;20058;-63
2021/03/19 11:38:41;;;;;;;2.60;1.60;;;6.90;79.20;;;;;;5106615;28;20057;-62
2021/03/19 11:41:21;;;;;;;1.92;1.55;;;7.10;78.70;;;;;;5108356;28;20069;-63
2021/03/19 11:43:46;;;;;;;1.30;1.23;;;7.20;78.40;;;;;;5109919;28;20420;-62
2021/03/19 11:46:12;;;;;;;2.80;1.70;;;7.20;79.40;;;;;;5110144;28;20043;-63
2021/03/19 11:48:41;;;;;;;2.23;1.47;;;7.20;79.20;;;;;;5110591;28;20055;-63
2021/03/19 11:51:15;;;;;;;4.85;1.55;;;7.30;80.00;;;;;;5143359;27;20456;-64
2021/03/19 11:53:41;;;;;;;2.53;1.27;;;7.30;81.10;;;;;;5107594;28;20080;-63
2021/03/19 11:56:07;;;;;;;2.75;1.20;;;7.20;79.00;;;;;;5108676;28;20149;-63
2021/03/19 11:58:34;;;;;;;1.75;1.42;;;7.30;77.70;;;;;;5110038;28;20047;-63
2021/03/19 12:01:02;;;;;;;2.08;1.50;;;7.40;77.60;;;;;;5110433;28;20092;-64
2021/03/19 12:03:51;;;;;;;2.22;1.50;;;7.50;76.90;;;;;;5109127;28;20082;-63
2021/03/19 12:06:20;;;;;;;2.92;1.60;;;7.60;77.40;;;;;;5109902;28;20063;-62
2021/03/19 12:08:46;;;;;;;2.00;1.48;;;7.80;77.60;;;;;;5110081;28;20048;-64
2021/03/19 12:11:35;;;;;;;1.65;1.50;;;8.10;76.00;;;;;;5109687;27;20047;-64
2021/03/19 12:14:00;;;;;;;2.75;1.45;;;8.30;77.20;;;;;;5110126;28;20055;-64
2021/03/19 12:16:27;;;;;;;2.07;1.80;;;8.30;75.20;;;;;;5110117;28;20047;-63
2021/03/19 12:18:53;;;;;;;3.92;1.77;;;8.20;77.40;;;;;;5109791;28;20135;-65
2021/03/19 12:21:20;;;;;;;2.00;1.67;;;8.10;76.80;;;;;;5109984;28;20048;-65
2021/03/19 12:23:45;;;;;;;1.73;1.63;;;7.80;75.50;;;;;;5109902;28;20044;-64
2021/03/19 12:26:11;;;;;;;3.13;1.63;;;7.80;76.20;;;;;;5109538;27;20073;-65
2021/03/19 12:28:57;;;;;;;3.42;2.17;;;7.80;78.40;;;;;;5108809;28;20040;-64
2021/03/19 12:31:22;;;;;;;2.50;2.30;;;7.70;78.60;;;;;;5109858;28;20438;-64
2021/03/19 12:33:48;;;;;;;2.83;2.07;;;7.70;82.60;;;;;;5108110;28;20051;-64
2021/03/19 12:36:14;;;;;;;2.97;1.97;;;7.70;82.20;;;;;;5142501;27;20043;-64
2021/03/19 12:38:39;;;;;;;3.17;1.97;;;7.80;78.30;;;;;;5109713;28;20331;-65
2021/03/19 12:41:25;;;;;;;6.63;1.90;;;7.90;78.60;;;;;;5109368;28;20092;-61
2021/03/19 12:43:51;;;;;;;3.05;2.00;;;8.00;80.90;;;;;;5110638;28;20120;-59
2021/03/19 12:46:17;;;;;;;2.73;1.80;;;8.20;80.00;;;;;;5110444;28;20494;-60
2021/03/19 12:49:03;;;;;;;1.47;1.23;;;8.10;76.80;;;;;;5114306;28;20112;-58
2021/03/19 12:51:30;;;;;;;1.40;1.30;;;8.00;70.50;;;;;;5112190;28;20301;-59
2021/03/19 12:53:56;;;;;;;2.23;1.87;;;8.30;76.60;;;;;;5114441;28;20392;-59
2021/03/19 12:56:22;;;;;;;2.63;1.67;;;8.20;74.00;;;;;;5113285;28;20324;-59
2021/03/19 12:59:08;;;;;;;2.77;1.50;;;8.10;72.20;;;;;;5110269;28;20090;-59
2021/03/19 13:01:33;;;;;;;1.60;1.50;;;7.80;71.40;;;;;;5110131;28;20328;-59
2021/03/19 13:03:59;;;;;;;3.07;1.40;;;7.80;75.80;;;;;;5108658;28;20035;-59
2021/03/19 13:06:27;;;;;;;1.75;1.30;;;7.80;75.70;;;;;;5108957;28;20107;-59
2021/03/19 13:08:53;;;;;;;1.60;1.50;;;7.70;73.00;;;;;;5108959;27;20048;-58
2021/03/19 13:11:20;;;;;;;1.60;1.33;;;7.80;74.00;;;;;;5109110;28;20470;-63
2021/03/19 13:13:46;;;;;;;1.00;0.90;;;8.10;75.70;;;;;;5106252;27;20069;-65
2021/03/19 13:16:32;;;;;;;1.10;1.00;;;8.40;70.60;;;;;;5105776;28;20138;-65
2021/03/19 13:19:17;;;;;;;1.80;1.03;;;8.40;69.60;;;;;;5105424;28;20135;-63
2021/03/19 13:21:43;;;;;;;1.33;1.00;;;8.20;66.60;;;;;;5106553;28;20309;-64
2021/03/19 13:24:29;;;;;;;2.13;1.20;;;8.10;69.90;;;;;;5117541;27;20085;-64
2021/03/19 13:26:55;;;;;;;1.20;1.10;;;8.10;71.70;;;;;;5104470;28;20365;-63
2021/03/19 13:29:20;;;;;;;1.10;1.00;;;8.10;73.60;;;;;;5105070;28;20650;-63
2021/03/19 13:31:46;;;;;;;1.37;1.00;;;8.10;72.80;;;;;;5104925;28;20054;-62
2021/03/19 13:34:12;;;;;;;1.33;0.87;;;8.00;69.40;;;;;;5105769;28;20098;-65
2021/03/19 13:36:39;;;;;;;5.47;1.40;;;7.90;71.20;;;;;;5105669;28;20054;-65
2021/03/19 13:39:07;;;;;;;2.83;1.10;;;8.00;71.80;;;;;;5105890;28;20301;-65
2021/03/19 13:41:53;;;;;;;0.97;0.80;;;8.10;70.50;;;;;;5105040;28;20300;-63